EZY61GM EGCC-LFMT
Flight info
| Callsign | EZY61GM |
|---|---|
| Flight time | N/A |
| Altitude | 35000 |
| Route | SANBA N859 HON UL612 VEULE/N0438F370 DCT DEKOD UN857 DISAK/N0425F330 DCT DIRMO DCT ETAMO DCT ADEKA DCT MOKDI DCT MEN |
| Aircraft | A21N/M-SDE2E3FGHIJ1RWXY/LB1 |
Departure
| Time | N/A |
|---|---|
| Airport | Manchester Airport (EGCC) |
Arrival
| Time | 2026-05-07 11:10 |
|---|---|
| Airport | Montpellier-Méditerranée Airport (LFMT) |
| Time | Latitude | Longitude | Altitude | Speed | Heading |
|---|---|---|---|---|---|
| 2026-05-07 10:56 | 44.04980 | 3.31656 | 12832 ft | 311 kts | 170° |
| 2026-05-07 10:56 | 44.02855 | 3.32237 | 12485 ft | 311 kts | 170° |
| 2026-05-07 10:57 | 44.00733 | 3.32815 | 12137 ft | 310 kts | 170° |
| 2026-05-07 10:57 | 43.98611 | 3.33399 | 11794 ft | 310 kts | 170° |
| 2026-05-07 10:57 | 43.96488 | 3.33981 | 11445 ft | 311 kts | 171° |
| 2026-05-07 10:57 | 43.94367 | 3.34559 | 11102 ft | 311 kts | 171° |
| 2026-05-07 10:58 | 43.92244 | 3.35137 | 10749 ft | 311 kts | 171° |
| 2026-05-07 10:58 | 43.90128 | 3.35716 | 10410 ft | 308 kts | 171° |
| 2026-05-07 10:58 | 43.88065 | 3.36281 | 10083 ft | 304 kts | 171° |
| 2026-05-07 10:58 | 43.86009 | 3.36840 | 9788 ft | 298 kts | 171° |
| 2026-05-07 10:59 | 43.84005 | 3.37385 | 9533 ft | 290 kts | 171° |
| 2026-05-07 10:59 | 43.82031 | 3.37920 | 9154 ft | 288 kts | 171° |
| 2026-05-07 10:59 | 43.80065 | 3.38449 | 8769 ft | 286 kts | 171° |
| 2026-05-07 10:59 | 43.78118 | 3.38970 | 8409 ft | 283 kts | 171° |
| 2026-05-07 11:00 | 43.76178 | 3.39491 | 8065 ft | 285 kts | 171° |
| 2026-05-07 11:00 | 43.74225 | 3.40017 | 7730 ft | 286 kts | 170° |
| 2026-05-07 11:00 | 43.72277 | 3.40540 | 7392 ft | 283 kts | 170° |
| 2026-05-07 11:00 | 43.70355 | 3.41070 | 7051 ft | 281 kts | 167° |
| 2026-05-07 11:01 | 43.68567 | 3.42113 | 6714 ft | 280 kts | 144° |
| 2026-05-07 11:01 | 43.67309 | 3.44125 | 6394 ft | 279 kts | 116° |
| 2026-05-07 11:01 | 43.66717 | 3.46628 | 6079 ft | 278 kts | 102° |
| 2026-05-07 11:01 | 43.66302 | 3.49242 | 5755 ft | 278 kts | 101° |
| 2026-05-07 11:02 | 43.66092 | 3.51863 | 5431 ft | 273 kts | 85° |
| 2026-05-07 11:02 | 43.66642 | 3.54316 | 5128 ft | 267 kts | 58° |
| 2026-05-07 11:02 | 43.67809 | 3.56273 | 4983 ft | 258 kts | 45° |
| 2026-05-07 11:02 | 43.69029 | 3.58004 | 4947 ft | 243 kts | 45° |
| 2026-05-07 11:03 | 43.70176 | 3.59631 | 4940 ft | 232 kts | 45° |
| 2026-05-07 11:03 | 43.71297 | 3.61229 | 4951 ft | 231 kts | 46° |
| 2026-05-07 11:03 | 43.72325 | 3.62938 | 4958 ft | 232 kts | 60° |
| 2026-05-07 11:03 | 43.72740 | 3.65049 | 4938 ft | 235 kts | 90° |
| 2026-05-07 11:04 | 43.72288 | 3.67176 | 4667 ft | 231 kts | 119° |
| 2026-05-07 11:04 | 43.71453 | 3.69026 | 4491 ft | 221 kts | 122° |
| 2026-05-07 11:04 | 43.70641 | 3.70772 | 4281 ft | 212 kts | 122° |
| 2026-05-07 11:04 | 43.69869 | 3.72487 | 4028 ft | 208 kts | 121° |
| 2026-05-07 11:05 | 43.69130 | 3.74171 | 3781 ft | 202 kts | 121° |
| 2026-05-07 11:05 | 43.68417 | 3.75812 | 3531 ft | 196 kts | 121° |
| 2026-05-07 11:05 | 43.67724 | 3.77411 | 3272 ft | 193 kts | 121° |
| 2026-05-07 11:05 | 43.66972 | 3.78929 | 3035 ft | 186 kts | 125° |
| 2026-05-07 11:06 | 43.66245 | 3.80339 | 2884 ft | 175 kts | 125° |
| 2026-05-07 11:06 | 43.65574 | 3.81665 | 2681 ft | 161 kts | 124° |
| 2026-05-07 11:06 | 43.64945 | 3.82921 | 2462 ft | 158 kts | 123° |
| 2026-05-07 11:06 | 43.64323 | 3.84166 | 2249 ft | 157 kts | 123° |
| 2026-05-07 11:07 | 43.63706 | 3.85413 | 2090 ft | 157 kts | 124° |
| 2026-05-07 11:07 | 43.63091 | 3.86640 | 1892 ft | 147 kts | 124° |
| 2026-05-07 11:07 | 43.62536 | 3.87748 | 1710 ft | 138 kts | 123° |
| 2026-05-07 11:07 | 43.61991 | 3.88829 | 1519 ft | 137 kts | 124° |
| 2026-05-07 11:08 | 43.61456 | 3.89896 | 1340 ft | 136 kts | 123° |
| 2026-05-07 11:08 | 43.60920 | 3.90972 | 1147 ft | 136 kts | 124° |
| 2026-05-07 11:08 | 43.60379 | 3.92029 | 886 ft | 134 kts | 125° |
| 2026-05-07 11:08 | 43.59856 | 3.93084 | 638 ft | 132 kts | 125° |
| 2026-05-07 11:09 | 43.59342 | 3.94124 | 353 ft | 131 kts | 126° |
| 2026-05-07 11:09 | 43.58826 | 3.95152 | 140 ft | 130 kts | 126° |
| 2026-05-07 11:09 | 43.58313 | 3.96174 | 27 ft | 126 kts | 126° |
| 2026-05-07 11:09 | 43.57909 | 3.96962 | 20 ft | 61 kts | 124° |
| 2026-05-07 11:10 | 43.57751 | 3.97277 | 22 ft | 37 kts | 125° |
| 2026-05-07 11:10 | 43.57599 | 3.97574 | 24 ft | 39 kts | 124° |
| 2026-05-07 11:10 | 43.57443 | 3.97881 | 21 ft | 40 kts | 124° |
| 2026-05-07 11:10 | 43.57349 | 3.98078 | 21 ft | 15 kts | 124° |
| 2026-05-07 11:11 | 43.57284 | 3.98163 | 21 ft | 14 kts | 162° |
| 2026-05-07 11:11 | 43.57193 | 3.98120 | 20 ft | 15 kts | 233° |
| 2026-05-07 11:11 | 43.57198 | 3.97976 | 21 ft | 17 kts | 305° |
| 2026-05-07 11:11 | 43.57270 | 3.97834 | 19 ft | 19 kts | 305° |
| 2026-05-07 11:12 | 43.57348 | 3.97680 | 21 ft | 21 kts | 305° |
| 2026-05-07 11:12 | 43.57434 | 3.97510 | 22 ft | 22 kts | 305° |
| 2026-05-07 11:12 | 43.57527 | 3.97325 | 24 ft | 24 kts | 305° |
| 2026-05-07 11:12 | 43.57622 | 3.97136 | 22 ft | 22 kts | 304° |
| 2026-05-07 11:13 | 43.57709 | 3.96961 | 18 ft | 23 kts | 304° |
| 2026-05-07 11:13 | 43.57801 | 3.96776 | 17 ft | 24 kts | 304° |
| 2026-05-07 11:13 | 43.57890 | 3.96597 | 18 ft | 20 kts | 304° |
| 2026-05-07 11:13 | 43.57966 | 3.96448 | 20 ft | 17 kts | 306° |
| 2026-05-07 11:14 | 43.58031 | 3.96323 | 20 ft | 11 kts | 305° |
| 2026-05-07 11:14 | 43.58028 | 3.96250 | 22 ft | 10 kts | 220° |
| 2026-05-07 11:14 | 43.57970 | 3.96185 | 21 ft | 12 kts | 247° |
| 2026-05-07 11:14 | 43.57984 | 3.96096 | 22 ft | 8 kts | 304° |
| 2026-05-07 11:15 | 43.58000 | 3.96044 | 21 ft | 5 kts | 235° |
| 2026-05-07 11:15 | 43.57968 | 3.96004 | 20 ft | 5 kts | 213° |
| 2026-05-07 11:15 | 43.57959 | 3.95996 | 20 ft | 0 kts | 213° |